الصفحة الرئيسية
METAR-TAF:

METAR-TAF

مطار :

كراكاس, فنزويلا

دائرة عرض: 10-36N, خط طول: 066-59W, ارتفاع: 43 متر

مراقبة الطقس الحالي

تاريخ ووقت الإصدار 1ساعة و 0 دقيقة قبل الساعة 03:00UTC
رياح هادئة
درجة الحرارة 25°درجة مئوية
الرطوبة 74%
ضغط 1012 hPa
الرؤية 10 كم أو أكثر
غيوم قليلة على ارتفاع 1600 قدم

METAR: SVMI 100300Z 00000KT 9999 FEW016 25/20 Q1012

زمن: 00:00 (04:00 UTC)

توقعات

تاريخ ووقت الإصدار 6ساعات و 0 دقيقة قبل الساعة 22:00UTC
التوقعات صالحة من10 الساعة 00 UTC إلى 11 الساعة 00 UTC
ريح 4 عقدة من الشرق/الشمال الشرقي
الرؤية 10 كم أو أكثر
غيوم متفرقة على ارتفاع 1600 قدم
أصبح
من 10 الساعة 01 UTC إلى 10 الساعة 07 UTC
ريح عقدة من الشمال
غيوم قليلة على ارتفاع 1600 قدم

TAF: SVMI 092200Z 1000/1100 07004KT 9999 SCT016 TX33/18Z TN23/07Z BECMG 1001/1007 00000KT FEW016

أرصاد الطقس والتوقعات من أكثر من 4000 مطار (تقارير الطقس للمطار METAR والتنبؤ بالطقس بالمطارTAF).

المحطات المتاحة هي النقط الصفراء والحمراء على الخريطة.

حرك المؤشر فوق النقطة لمعرفة اسم المحطة.

ثم انقر لمعرفة أرصاد وتوقعات الطقس.

لتغيير الخارطة: اضغط على الأزرار الخضراء مع رمز الصليب الأسود للتكبير. على الزر الأخضر مع شرطة للتصغير، أو على الأسهم الخضراء للخرائط المجاورة.


METAR-TAF: